createdAt,value
2018-12-08T00:00:16.597Z,56.90
2018-12-08T00:02:45.686Z,54.13
2018-12-08T00:05:14.813Z,60.90
2018-12-08T00:07:43.929Z,72.37
2018-12-08T00:10:13.034Z,108.90
2018-12-08T00:12:42.147Z,102.40
2018-12-08T00:15:11.278Z,107.83
2018-12-08T00:17:40.422Z,110.80
2018-12-08T00:20:09.565Z,92.07
2018-12-08T00:22:38.706Z,74.80
2018-12-08T00:25:07.825Z,79.30
2018-12-08T00:27:37.081Z,78.50
2018-12-08T00:30:15.941Z,73.90
2018-12-08T00:32:45.082Z,70.30
2018-12-08T00:35:14.214Z,71.77
2018-12-08T00:37:43.347Z,74.93
2018-12-08T00:40:12.462Z,68.27
2018-12-08T00:42:41.612Z,61.93
2018-12-08T00:45:10.737Z,59.57
2018-12-08T00:47:39.865Z,54.90
2018-12-08T00:50:08.961Z,58.87
2018-12-08T00:52:38.267Z,54.13
2018-12-08T00:55:07.442Z,46.20
2018-12-08T00:57:36.558Z,55.33
2018-12-08T01:00:06.000Z,46.67
2018-12-08T01:02:35.144Z,46.70
2018-12-08T01:05:04.258Z,37.13
2018-12-08T01:07:33.354Z,39.23
2018-12-08T01:10:02.477Z,39.23
2018-12-08T01:12:31.570Z,34.57
2018-12-08T01:15:00.651Z,30.97
2018-12-08T01:17:29.746Z,30.63
2018-12-08T01:19:58.857Z,36.57
2018-12-08T01:22:27.994Z,34.70
2018-12-08T01:24:57.102Z,31.30
2018-12-08T01:27:26.244Z,26.20
2018-12-08T01:29:55.306Z,28.67
2018-12-08T01:32:24.400Z,26.67
2018-12-08T01:34:53.507Z,23.63
2018-12-08T01:37:22.669Z,23.00
2018-12-08T01:39:51.782Z,19.40
2018-12-08T01:42:20.880Z,19.50
2018-12-08T01:44:50.001Z,21.57
2018-12-08T01:47:19.129Z,18.47
2018-12-08T01:49:48.245Z,23.00
2018-12-08T01:52:17.362Z,20.03
2018-12-08T01:54:46.446Z,16.30
2018-12-08T01:57:15.569Z,19.10
2018-12-08T01:59:44.678Z,16.00
2018-12-08T02:02:13.805Z,16.10
2018-12-08T02:04:42.916Z,14.27
2018-12-08T02:07:12.044Z,13.37
2018-12-08T02:09:41.233Z,13.70
2018-12-08T02:12:10.356Z,12.70
2018-12-08T02:14:39.459Z,12.70
2018-12-08T02:17:08.599Z,12.90
2018-12-08T02:19:37.732Z,13.40
2018-12-08T02:22:06.901Z,16.03
2018-12-08T02:24:36.321Z,15.53
2018-12-08T02:27:05.420Z,16.27
2018-12-08T02:29:34.563Z,18.80
2018-12-08T02:32:03.797Z,19.07
2018-12-08T02:34:32.933Z,22.73
2018-12-08T02:37:02.075Z,20.03
2018-12-08T02:39:31.221Z,23.37
2018-12-08T02:42:00.317Z,21.33
2018-12-08T02:44:29.465Z,20.50
2018-12-08T02:46:58.581Z,22.03
2018-12-08T02:49:27.696Z,21.43
2018-12-08T02:52:00.602Z,21.43
2018-12-08T02:54:29.706Z,21.33
2018-12-08T02:56:58.832Z,20.37
2018-12-08T02:59:27.967Z,20.50
2018-12-08T03:01:57.130Z,19.93
2018-12-08T03:04:26.250Z,21.03
2018-12-08T03:06:55.409Z,24.37
2018-12-08T03:09:24.525Z,23.57
2018-12-08T03:11:53.621Z,22.17
2018-12-08T03:14:22.736Z,22.30
2018-12-08T03:16:51.856Z,27.17
2018-12-08T03:19:20.969Z,24.73
2018-12-08T03:21:50.079Z,33.67
2018-12-08T03:24:19.247Z,24.10
2018-12-08T03:26:48.429Z,24.83
2018-12-08T03:29:17.554Z,27.87
2018-12-08T03:31:46.671Z,22.43
2018-12-08T03:34:15.810Z,25.27
2018-12-08T03:36:44.916Z,24.57
2018-12-08T03:39:14.052Z,23.17
2018-12-08T03:41:43.148Z,23.57
2018-12-08T03:44:12.249Z,25.13
2018-12-08T03:46:41.354Z,22.77
2018-12-08T03:49:10.475Z,20.20
2018-12-08T03:51:39.581Z,20.80
2018-12-08T03:54:08.680Z,19.47
2018-12-08T03:56:37.777Z,16.93
2018-12-08T03:59:07.012Z,19.50
2018-12-08T04:01:36.146Z,20.30
2018-12-08T04:04:05.247Z,21.20
2018-12-08T04:06:34.358Z,20.03
2018-12-08T04:09:04.163Z,19.43
2018-12-08T04:11:33.274Z,20.13
2018-12-08T04:14:02.403Z,18.13
2018-12-08T04:16:31.513Z,18.93
2018-12-08T04:19:00.633Z,20.03
2018-12-08T04:21:29.728Z,18.63
2018-12-08T04:23:58.856Z,20.17
2018-12-08T04:26:27.974Z,22.33
2018-12-08T04:28:57.123Z,20.50
2018-12-08T04:31:26.259Z,18.17
2018-12-08T04:33:55.386Z,18.63
2018-12-08T04:36:24.511Z,18.23
2018-12-08T04:38:53.658Z,20.17
2018-12-08T04:41:22.770Z,18.57
2018-12-08T04:43:51.915Z,19.43
2018-12-08T04:46:21.030Z,21.60
2018-12-08T04:48:50.183Z,22.53
2018-12-08T04:51:19.299Z,23.47
2018-12-08T04:53:48.447Z,24.17
2018-12-08T04:56:17.569Z,19.23
2018-12-08T04:58:46.706Z,16.90
2018-12-08T05:01:15.852Z,18.67
2018-12-08T05:03:44.988Z,18.63
2018-12-08T05:06:14.110Z,14.80
2018-12-08T05:08:43.230Z,15.90
2018-12-08T05:11:12.339Z,17.17
2018-12-08T05:13:41.441Z,16.90
2018-12-08T05:16:10.541Z,19.10
2018-12-08T05:18:39.682Z,29.33
2018-12-08T05:21:08.744Z,30.17
2018-12-08T05:23:37.860Z,30.77
2018-12-08T05:26:06.958Z,29.93
2018-12-08T05:28:36.069Z,39.20
2018-12-08T05:31:05.174Z,38.53
2018-12-08T05:33:34.336Z,41.00
2018-12-08T05:36:03.471Z,41.53
2018-12-08T05:38:32.607Z,51.17
2018-12-08T05:41:01.720Z,45.87
2018-12-08T05:43:30.824Z,48.60
2018-12-08T05:45:59.944Z,54.30
2018-12-08T05:48:29.063Z,55.50
2018-12-08T05:50:58.214Z,50.63
2018-12-08T05:53:27.309Z,45.77
2018-12-08T05:55:56.435Z,43.10
2018-12-08T05:58:25.543Z,34.80
2018-12-08T06:00:54.668Z,31.53
2018-12-08T06:03:23.802Z,32.13
2018-12-08T06:05:52.934Z,28.97
2018-12-08T06:08:22.044Z,31.43
2018-12-08T06:10:51.184Z,39.13
2018-12-08T06:13:20.308Z,33.97
2018-12-08T06:15:49.425Z,28.90
2018-12-08T06:18:18.528Z,29.33
2018-12-08T06:20:47.670Z,29.23
2018-12-08T06:23:16.769Z,31.60
2018-12-08T06:25:45.889Z,30.30
2018-12-08T06:28:21.670Z,31.10
2018-12-08T06:30:50.808Z,29.33
2018-12-08T06:33:19.929Z,26.97
2018-12-08T06:35:49.122Z,22.87
2018-12-08T06:38:18.239Z,21.53
2018-12-08T06:40:47.365Z,19.23
2018-12-08T06:43:16.454Z,19.20
2018-12-08T06:45:45.596Z,16.57
2018-12-08T06:48:14.708Z,16.63
2018-12-08T06:50:43.858Z,17.93
2018-12-08T06:53:13.000Z,18.30
2018-12-08T06:55:42.147Z,22.47
2018-12-08T06:58:11.261Z,23.17
2018-12-08T07:00:40.357Z,21.23
2018-12-08T07:03:09.433Z,21.20
2018-12-08T07:05:38.588Z,21.37
2018-12-08T07:08:07.707Z,21.20
2018-12-08T07:10:36.829Z,19.37
2018-12-08T07:13:05.907Z,16.87
2018-12-08T07:15:35.031Z,20.47
2018-12-08T07:18:04.138Z,23.73
2018-12-08T07:20:33.250Z,23.17
2018-12-08T07:23:02.340Z,22.70
2018-12-08T07:26:02.137Z,40.57
2018-12-08T07:28:31.302Z,34.77
2018-12-08T07:31:00.418Z,29.90
2018-12-08T07:33:29.545Z,22.83
2018-12-08T07:35:58.650Z,32.07
2018-12-08T07:38:27.754Z,30.53
2018-12-08T07:40:56.857Z,22.23
2018-12-08T07:43:25.960Z,18.53
2018-12-08T07:45:55.090Z,103.50
2018-12-08T07:48:24.196Z,24.30
2018-12-08T07:50:53.296Z,53.93
2018-12-08T07:53:22.433Z,22.53
2018-12-08T07:55:51.537Z,21.50
2018-12-08T07:58:20.648Z,472.63
2018-12-08T08:00:49.905Z,175.27
2018-12-08T08:03:19.022Z,21.47
2018-12-08T08:05:48.149Z,12.50
2018-12-08T08:08:17.262Z,39.30
2018-12-08T08:10:46.381Z,15.87
2018-12-08T08:13:15.500Z,12.73
2018-12-08T08:15:44.619Z,14.40
2018-12-08T08:18:13.703Z,13.87
2018-12-08T08:20:42.821Z,8.80
2018-12-08T08:23:11.916Z,23.20
2018-12-08T08:25:41.037Z,12.40
2018-12-08T08:28:10.133Z,87.17
2018-12-08T08:30:39.245Z,121.90
2018-12-08T08:33:08.348Z,42.37
2018-12-08T08:35:37.465Z,13.50
2018-12-08T08:38:06.587Z,16.03
2018-12-08T08:40:35.681Z,14.63
2018-12-08T08:43:04.857Z,9.77
2018-12-08T08:45:34.077Z,10.00
2018-12-08T08:48:03.165Z,10.10
2018-12-08T08:50:32.261Z,13.53
2018-12-08T08:53:03.437Z,10.87
2018-12-08T08:55:32.551Z,9.50
2018-12-08T08:58:01.646Z,15.10
2018-12-08T09:00:30.737Z,16.30
2018-12-08T09:02:59.853Z,26.27
2018-12-08T09:05:29.013Z,41.57
2018-12-08T09:07:58.117Z,42.20
2018-12-08T09:10:27.227Z,49.40
2018-12-08T09:12:56.348Z,49.10
2018-12-08T09:15:25.443Z,49.10
2018-12-08T09:17:54.560Z,45.00
2018-12-08T09:20:23.761Z,42.47
2018-12-08T09:22:52.862Z,38.50
2018-12-08T09:25:21.955Z,33.50
2018-12-08T09:27:51.074Z,28.07
2018-12-08T09:30:20.133Z,27.97
2018-12-08T09:32:49.257Z,24.63
2018-12-08T09:35:18.345Z,20.40
2018-12-08T09:37:47.453Z,19.77
2018-12-08T09:40:16.576Z,18.90
2018-12-08T09:42:45.680Z,30.07
2018-12-08T09:45:14.755Z,30.67
2018-12-08T09:47:43.855Z,31.20
2018-12-08T09:50:12.965Z,28.93
2018-12-08T09:52:42.077Z,28.13
2018-12-08T09:55:11.201Z,24.80
2018-12-08T09:57:40.335Z,19.27
2018-12-08T10:00:09.444Z,19.97
2018-12-08T10:02:38.557Z,17.53
2018-12-08T10:05:07.638Z,15.93
2018-12-08T10:07:36.770Z,14.60
2018-12-08T10:10:06.410Z,13.43
2018-12-08T10:12:35.514Z,10.50
2018-12-08T10:15:04.633Z,9.20
2018-12-08T10:17:33.775Z,9.07
2018-12-08T10:20:03.043Z,7.33
2018-12-08T10:22:32.142Z,7.60
2018-12-08T10:25:01.274Z,7.10
2018-12-08T10:27:30.442Z,6.73
2018-12-08T10:29:59.553Z,6.60
2018-12-08T10:32:28.633Z,6.07
2018-12-08T10:34:57.826Z,7.27
2018-12-08T10:37:26.949Z,7.30
2018-12-08T10:39:56.045Z,6.77
2018-12-08T10:42:25.129Z,6.57
2018-12-08T10:44:54.248Z,6.63
2018-12-08T10:47:23.349Z,6.37
2018-12-08T10:49:52.433Z,7.30
2018-12-08T10:52:21.563Z,6.50
2018-12-08T10:54:50.637Z,6.83
2018-12-08T10:57:19.744Z,8.70
2018-12-08T10:59:48.837Z,6.13
2018-12-08T11:02:23.023Z,6.73
2018-12-08T11:04:52.129Z,7.07
2018-12-08T11:07:21.244Z,38.93
2018-12-08T11:09:50.371Z,44.83
2018-12-08T11:12:19.476Z,24.70
2018-12-08T11:14:48.605Z,13.10
2018-12-08T11:17:17.724Z,12.70
2018-12-08T11:19:46.854Z,16.53
2018-12-08T11:22:15.933Z,19.63
2018-12-08T11:24:45.007Z,19.40
2018-12-08T11:27:14.107Z,23.03
2018-12-08T11:29:43.188Z,25.60
2018-12-08T11:32:12.289Z,37.83
2018-12-08T11:34:41.396Z,47.40
2018-12-08T11:37:10.499Z,39.73
2018-12-08T11:39:39.610Z,48.90
2018-12-08T11:42:08.729Z,50.73
2018-12-08T11:44:37.993Z,49.43
2018-12-08T11:47:07.128Z,45.83
2018-12-08T11:49:36.225Z,99.77
2018-12-08T11:52:05.339Z,123.67
2018-12-08T11:54:34.445Z,111.37
2018-12-08T11:57:03.672Z,114.97
2018-12-08T11:59:32.791Z,115.93
2018-12-08T12:02:01.934Z,97.57
2018-12-08T12:04:31.039Z,100.60
2018-12-08T12:07:00.182Z,87.77
2018-12-08T12:09:29.298Z,84.33
2018-12-08T12:11:58.397Z,78.50
2018-12-08T12:14:41.556Z,73.80
2018-12-08T12:17:10.730Z,74.00
2018-12-08T12:19:39.845Z,74.27
2018-12-08T12:22:08.936Z,72.67
2018-12-08T12:24:38.049Z,82.33
2018-12-08T12:27:07.174Z,84.33
2018-12-08T12:29:36.260Z,87.90
2018-12-08T12:32:05.349Z,88.80
2018-12-08T12:34:34.553Z,85.03
2018-12-08T12:37:03.636Z,90.53
2018-12-08T12:39:32.769Z,89.27
2018-12-08T12:42:01.857Z,85.47
2018-12-08T12:44:30.974Z,88.13
2018-12-08T12:47:00.101Z,94.57
2018-12-08T12:49:29.209Z,102.40
2018-12-08T12:51:58.324Z,106.60
2018-12-08T12:54:27.449Z,105.30
2018-12-08T12:56:56.558Z,106.37
2018-12-08T12:59:25.683Z,111.70
2018-12-08T13:01:55.251Z,105.90
2018-12-08T13:04:24.383Z,116.83
2018-12-08T13:06:53.505Z,123.97
2018-12-08T13:09:22.614Z,127.00
2018-12-08T13:11:51.966Z,116.80
2018-12-08T13:14:21.048Z,110.23
2018-12-08T13:16:50.185Z,108.27
2018-12-08T13:19:19.260Z,94.63
2018-12-08T13:21:48.384Z,97.43
2018-12-08T13:24:17.521Z,90.13
2018-12-08T13:26:46.606Z,84.10
2018-12-08T13:29:15.709Z,83.10
2018-12-08T13:31:45.265Z,87.97
2018-12-08T13:34:26.923Z,90.97
2018-12-08T13:36:56.039Z,91.50
2018-12-08T13:39:25.168Z,90.80
2018-12-08T13:41:54.268Z,94.67
2018-12-08T13:44:42.058Z,88.20
2018-12-08T13:47:11.160Z,85.17
2018-12-08T13:49:40.306Z,81.90
2018-12-08T13:52:09.425Z,82.07
2018-12-08T13:57:28.913Z,80.77
2018-12-08T13:59:58.568Z,86.97
2018-12-08T14:02:28.333Z,92.53
2018-12-08T14:04:59.067Z,85.03
2018-12-08T14:07:28.179Z,85.50
2018-12-08T14:09:57.308Z,90.70
2018-12-08T14:12:26.435Z,117.87
2018-12-08T14:14:55.593Z,108.40
2018-12-08T14:17:24.955Z,91.37
2018-12-08T14:19:54.092Z,84.40
2018-12-08T14:22:23.183Z,74.90
2018-12-08T14:24:52.296Z,69.33
2018-12-08T14:27:21.401Z,97.17
2018-12-08T14:29:50.521Z,83.57
2018-12-08T14:32:19.659Z,103.17
2018-12-08T14:34:48.763Z,121.13
2018-12-08T14:37:17.865Z,140.70
2018-12-08T14:39:47.006Z,155.43
2018-12-08T14:42:16.114Z,186.07
2018-12-08T14:44:47.188Z,190.63
2018-12-08T14:47:16.283Z,246.43
2018-12-08T14:49:46.582Z,260.80
2018-12-08T14:52:15.689Z,271.73
2018-12-08T14:54:44.889Z,259.87
2018-12-08T14:57:14.596Z,264.70
2018-12-08T14:59:43.714Z,238.43
2018-12-08T15:02:12.818Z,265.63
2018-12-08T15:04:41.949Z,252.07
2018-12-08T15:07:11.092Z,255.40
2018-12-08T15:09:40.193Z,245.93
2018-12-08T15:12:09.327Z,146.30
2018-12-08T15:14:38.434Z,148.87
2018-12-08T15:17:07.080Z,144.23
2018-12-08T15:19:36.188Z,132.33
2018-12-08T15:22:05.301Z,121.80
2018-12-08T15:24:34.412Z,125.37
2018-12-08T15:27:03.561Z,137.50
2018-12-08T15:29:32.682Z,164.90
2018-12-08T15:32:01.809Z,134.83
2018-12-08T15:34:30.920Z,120.47
2018-12-08T15:37:00.142Z,136.07
2018-12-08T15:39:29.264Z,126.40
2018-12-08T15:41:58.382Z,126.87
2018-12-08T15:44:27.506Z,131.27
2018-12-08T15:46:56.637Z,131.57
2018-12-08T15:49:25.778Z,144.47
2018-12-08T15:51:58.005Z,148.23
2018-12-08T15:54:27.145Z,139.37
2018-12-08T15:56:56.266Z,141.60
2018-12-08T15:59:25.403Z,140.03
2018-12-08T16:01:54.613Z,139.07
2018-12-08T16:04:23.725Z,142.57
2018-12-08T16:06:52.849Z,131.63
2018-12-08T16:09:22.008Z,153.30
2018-12-08T16:11:51.130Z,146.47
2018-12-08T16:14:20.260Z,153.77
2018-12-08T16:16:49.448Z,140.10
2018-12-08T16:19:18.598Z,137.97
2018-12-08T16:21:48.117Z,146.00
2018-12-08T16:24:17.228Z,133.57
2018-12-08T16:26:46.331Z,159.23
2018-12-08T16:29:15.426Z,159.57
2018-12-08T16:31:44.555Z,145.63
2018-12-08T16:34:13.686Z,147.07
2018-12-08T16:36:42.834Z,132.77
2018-12-08T16:39:11.976Z,127.47
2018-12-08T16:41:41.114Z,113.73
2018-12-08T16:44:10.232Z,126.63
2018-12-08T16:46:39.361Z,126.17
2018-12-08T16:49:08.447Z,120.17
2018-12-08T16:51:37.536Z,120.17
2018-12-08T16:54:06.673Z,110.60
2018-12-08T16:56:35.812Z,92.57
2018-12-08T16:59:04.952Z,113.77
2018-12-08T17:01:34.091Z,112.10
2018-12-08T17:04:03.242Z,118.20
2018-12-08T17:06:32.359Z,187.33
2018-12-08T17:09:01.504Z,214.63
2018-12-08T17:11:30.679Z,240.17
2018-12-08T17:13:59.799Z,253.40
2018-12-08T17:16:28.932Z,220.63
2018-12-08T17:18:58.060Z,237.63
2018-12-08T17:21:27.188Z,240.30
2018-12-08T17:23:56.313Z,219.00
2018-12-08T17:26:25.421Z,216.77
2018-12-08T17:28:54.563Z,203.03
2018-12-08T17:31:23.713Z,189.40
2018-12-08T17:33:52.819Z,183.97
2018-12-08T17:36:21.983Z,183.10
2018-12-08T17:38:51.125Z,170.27
2018-12-08T17:41:20.307Z,158.57
2018-12-08T17:43:49.425Z,162.87
2018-12-08T17:46:18.591Z,148.20
2018-12-08T17:48:47.734Z,154.67
2018-12-08T17:51:16.910Z,193.83
2018-12-08T17:53:46.021Z,268.93
2018-12-08T17:56:15.165Z,291.70
2018-12-08T17:58:44.327Z,274.23
2018-12-08T18:01:13.493Z,276.90
2018-12-08T18:03:42.625Z,272.13
2018-12-08T18:06:11.777Z,278.33
2018-12-08T18:08:40.907Z,268.90
2018-12-08T18:11:10.059Z,269.23
2018-12-08T18:13:39.181Z,289.17
2018-12-08T18:16:08.309Z,297.83
2018-12-08T18:18:37.473Z,282.13
2018-12-08T18:21:06.576Z,277.13
2018-12-08T18:23:35.806Z,275.93
2018-12-08T18:26:04.938Z,274.13
2018-12-08T18:28:34.084Z,261.37
2018-12-08T18:31:04.162Z,274.10
2018-12-08T18:33:33.292Z,258.37
2018-12-08T18:36:02.461Z,260.97
2018-12-08T18:38:31.601Z,268.83
2018-12-08T18:41:00.749Z,259.67
2018-12-08T18:43:29.929Z,258.87
2018-12-08T18:45:59.070Z,251.17
2018-12-08T18:48:28.287Z,252.60
2018-12-08T18:50:57.413Z,245.80
2018-12-08T18:53:26.829Z,232.80
2018-12-08T18:55:55.940Z,224.70
2018-12-08T18:58:25.071Z,199.67
2018-12-08T19:00:54.509Z,200.17
2018-12-08T19:03:23.784Z,201.73
2018-12-08T19:05:52.920Z,204.87
2018-12-08T19:08:22.030Z,204.83
2018-12-08T19:10:51.305Z,199.53
2018-12-08T19:13:20.427Z,196.63
2018-12-08T19:15:49.553Z,202.07
2018-12-08T19:18:18.656Z,213.07
2018-12-08T19:20:47.784Z,206.07
2018-12-08T19:23:16.886Z,190.87
2018-12-08T19:25:46.005Z,180.67
2018-12-08T19:28:15.149Z,196.20
2018-12-08T19:30:44.273Z,207.17
2018-12-08T19:33:14.598Z,216.87
2018-12-08T19:35:44.075Z,202.27
2018-12-08T19:38:13.265Z,193.07
2018-12-08T19:40:42.413Z,171.83
2018-12-08T19:43:11.550Z,152.57
2018-12-08T19:45:40.660Z,144.50
2018-12-08T19:48:09.771Z,139.10
2018-12-08T19:50:38.993Z,149.93
2018-12-08T19:53:08.125Z,150.60
2018-12-08T19:55:37.553Z,151.20
2018-12-08T19:58:07.761Z,152.50
2018-12-08T20:00:36.926Z,164.70
2018-12-08T20:03:06.078Z,161.47
2018-12-08T20:05:35.176Z,164.30
2018-12-08T20:08:05.100Z,143.40
2018-12-08T20:10:34.716Z,141.33
2018-12-08T20:13:04.876Z,148.97
2018-12-08T20:15:34.016Z,153.60
2018-12-08T20:18:05.865Z,162.80
2018-12-08T20:20:34.962Z,152.00
2018-12-08T20:23:04.078Z,145.23
2018-12-08T20:25:33.206Z,139.00
2018-12-08T20:28:02.329Z,149.83
2018-12-08T20:30:31.445Z,172.07
2018-12-08T20:33:00.557Z,193.40
2018-12-08T20:35:29.650Z,214.50
2018-12-08T20:37:58.734Z,249.37
2018-12-08T20:40:27.826Z,234.17
2018-12-08T20:42:56.930Z,236.53
2018-12-08T20:45:26.023Z,231.37
2018-12-08T20:47:55.113Z,258.33
2018-12-08T20:50:24.209Z,267.23
2018-12-08T20:52:53.314Z,277.40
2018-12-08T20:55:24.512Z,277.83
2018-12-08T20:57:53.617Z,297.77
2018-12-08T21:00:22.740Z,273.07
2018-12-08T21:02:51.884Z,223.57
2018-12-08T21:05:21.136Z,132.70
2018-12-08T21:07:50.251Z,92.53
2018-12-08T21:10:19.373Z,59.30
2018-12-08T21:12:48.489Z,56.17
2018-12-08T21:15:17.609Z,62.93
2018-12-08T21:17:46.723Z,64.97
2018-12-08T21:20:15.849Z,67.60
2018-12-08T21:22:44.960Z,72.13
2018-12-08T21:25:14.116Z,68.03
2018-12-08T21:27:43.206Z,73.13
2018-12-08T21:30:12.307Z,78.43
2018-12-08T21:32:41.444Z,75.20
2018-12-08T21:35:10.577Z,72.17
2018-12-08T21:37:39.693Z,69.00
2018-12-08T21:40:14.245Z,65.10
2018-12-08T21:42:43.352Z,64.40
2018-12-08T21:45:12.475Z,87.63
2018-12-08T21:47:41.554Z,77.57
2018-12-08T21:50:10.667Z,67.27
2018-12-08T21:52:39.780Z,66.30
2018-12-08T21:55:08.869Z,67.07
2018-12-08T21:57:37.983Z,70.87
2018-12-08T22:00:07.497Z,80.07
2018-12-08T22:02:36.631Z,69.10
2018-12-08T22:05:06.041Z,66.77
2018-12-08T22:07:35.145Z,62.40
2018-12-08T22:10:04.390Z,58.90
2018-12-08T22:12:33.489Z,60.93
2018-12-08T22:15:06.606Z,57.63
2018-12-08T22:17:35.749Z,61.63
2018-12-08T22:20:05.168Z,58.40
2018-12-08T22:22:34.273Z,60.03
2018-12-08T22:25:03.381Z,60.93
2018-12-08T22:27:32.481Z,62.13
2018-12-08T22:30:01.592Z,62.73
2018-12-08T22:32:30.733Z,65.97
2018-12-08T22:34:59.849Z,64.80
2018-12-08T22:37:29.155Z,69.90
2018-12-08T22:39:58.323Z,80.90
2018-12-08T22:42:27.461Z,70.67
2018-12-08T22:44:56.535Z,72.40
2018-12-08T22:47:25.628Z,86.20
2018-12-08T22:49:54.744Z,87.80
2018-12-08T22:52:23.885Z,125.43
2018-12-08T22:54:52.969Z,114.07
2018-12-08T22:57:22.065Z,122.77
2018-12-08T22:59:51.180Z,115.07
2018-12-08T23:02:20.310Z,121.17
2018-12-08T23:04:49.425Z,113.43
2018-12-08T23:07:18.590Z,107.50
2018-12-08T23:09:47.681Z,113.27
2018-12-08T23:12:16.778Z,115.67
2018-12-08T23:14:45.896Z,113.03
2018-12-08T23:17:15.009Z,112.80
2018-12-08T23:19:44.134Z,101.33
2018-12-08T23:22:13.224Z,106.07
2018-12-08T23:24:42.345Z,110.73
2018-12-08T23:27:11.451Z,102.20
2018-12-08T23:29:40.565Z,89.87
2018-12-08T23:32:09.676Z,84.53
2018-12-08T23:34:38.811Z,88.80
2018-12-08T23:37:07.872Z,84.40
2018-12-08T23:39:39.181Z,80.37
2018-12-08T23:42:08.093Z,74.40
2018-12-08T23:44:37.226Z,70.17
2018-12-08T23:47:06.308Z,74.37
2018-12-08T23:49:35.424Z,72.90
2018-12-08T23:52:04.510Z,72.23
2018-12-08T23:54:33.642Z,70.13
2018-12-08T23:57:02.737Z,68.03
2018-12-08T23:59:31.860Z,65.27
